Time;durP1;ratioP1;P1;durP2;ratioP2;P2;SDS_P1;SDS_P2;PMS_P1;PMS_P2;Temp;Humidity;BMP_temperature;BMP_pressure;BME280_temperature;BME280_humidity;BME280_pressure;Samples;Min_cycle;Max_cycle;Signal;HPM_P1;HPM_P2
2022/07/18 00:00:12;;;;;;;4.13;1.50;;;20.60;99.90;;;;;;5040248;28;20100;-79
2022/07/18 00:02:39;;;;;;;4.35;1.52;;;20.70;99.90;;;;;;5035359;28;20081;-79
2022/07/18 00:05:06;;;;;;;3.60;1.40;;;20.60;99.90;;;;;;5032515;28;20070;-79
2022/07/18 00:07:33;;;;;;;4.88;1.40;;;20.60;99.90;;;;;;5031741;28;20089;-79
2022/07/18 00:10:00;;;;;;;1.88;1.60;;;20.60;99.90;;;;;;5034444;28;20064;-79
2022/07/18 00:12:27;;;;;;;4.25;1.35;;;20.50;99.90;;;;;;5033234;28;20302;-77
2022/07/18 00:14:54;;;;;;;4.20;1.30;;;20.50;99.90;;;;;;5032573;28;20103;-79
2022/07/18 00:17:21;;;;;;;2.58;1.40;;;20.50;99.90;;;;;;5033665;28;20053;-78
2022/07/18 00:19:47;;;;;;;3.97;1.15;;;20.40;99.90;;;;;;5031858;28;20089;-79
2022/07/18 00:22:14;;;;;;;1.50;1.40;;;20.40;99.90;;;;;;5040291;28;20395;-79
2022/07/18 00:24:41;;;;;;;2.40;1.33;;;20.50;99.90;;;;;;5033828;28;20053;-77
2022/07/18 00:27:08;;;;;;;3.20;1.55;;;20.50;99.90;;;;;;5030933;28;20053;-78
2022/07/18 00:29:38;;;;;;;2.33;1.42;;;20.50;99.90;;;;;;5031410;28;20081;-76
2022/07/18 00:32:07;;;;;;;3.15;1.63;;;20.30;99.90;;;;;;5033319;28;20057;-79
2022/07/18 00:34:35;;;;;;;3.42;1.50;;;20.30;99.90;;;;;;5029038;28;20065;-79
2022/07/18 00:37:02;;;;;;;3.58;1.90;;;20.30;99.90;;;;;;5033305;28;20129;-77
2022/07/18 00:39:29;;;;;;;2.00;1.38;;;20.10;99.90;;;;;;5032492;28;20049;-80
2022/07/18 00:41:56;;;;;;;2.97;1.30;;;20.10;99.90;;;;;;5031847;28;20056;-79
2022/07/18 00:44:24;;;;;;;1.65;1.40;;;20.10;99.90;;;;;;5033346;28;20128;-78
2022/07/18 00:46:52;;;;;;;1.70;1.33;;;20.10;99.90;;;;;;5036623;28;20046;-77
2022/07/18 00:49:20;;;;;;;1.83;1.40;;;19.90;99.90;;;;;;5046465;28;20042;-80
2022/07/18 00:51:47;;;;;;;4.40;1.55;;;19.90;99.90;;;;;;5032701;28;20046;-79
2022/07/18 00:54:14;;;;;;;2.80;1.58;;;19.90;99.90;;;;;;5032341;28;20081;-80
2022/07/18 00:56:42;;;;;;;4.00;1.80;;;19.90;99.90;;;;;;5032826;28;20049;-79
2022/07/18 00:59:11;;;;;;;2.40;1.55;;;19.80;99.90;;;;;;5029625;28;20185;-79
2022/07/18 01:01:48;;;;;;;3.58;1.55;;;19.90;99.90;;;;;;5031592;28;20068;-79
2022/07/18 01:04:18;;;;;;;3.28;1.35;;;19.80;99.90;;;;;;5028688;28;20077;-79
2022/07/18 01:06:47;;;;;;;2.30;1.30;;;19.80;99.90;;;;;;5026266;28;20054;-78
2022/07/18 01:09:14;;;;;;;2.70;1.60;;;19.70;99.90;;;;;;5032536;28;20042;-78
2022/07/18 01:11:42;;;;;;;2.17;1.50;;;19.70;99.90;;;;;;5032569;28;20423;-78
2022/07/18 01:14:10;;;;;;;3.83;1.55;;;19.70;99.90;;;;;;5021980;28;20050;-79
2022/07/18 01:16:37;;;;;;;2.67;1.30;;;19.70;99.90;;;;;;5025265;28;20050;-78
2022/07/18 01:19:04;;;;;;;2.97;1.85;;;19.70;99.90;;;;;;5020748;28;20058;-79
2022/07/18 01:21:31;;;;;;;3.60;1.42;;;19.80;99.90;;;;;;5030513;28;20317;-77
2022/07/18 01:23:58;;;;;;;3.63;1.50;;;19.80;99.90;;;;;;5020024;28;20045;-79
2022/07/18 01:26:25;;;;;;;5.40;1.55;;;19.70;99.90;;;;;;5030211;28;20045;-78
2022/07/18 01:28:52;;;;;;;2.30;1.73;;;19.70;99.90;;;;;;5029626;28;20478;-79
2022/07/18 01:31:18;;;;;;;2.60;1.75;;;19.60;99.90;;;;;;5031602;28;20080;-76
2022/07/18 01:33:45;;;;;;;3.83;1.40;;;19.60;99.90;;;;;;5029963;28;20073;-79
2022/07/18 01:36:12;;;;;;;4.05;1.45;;;19.60;99.90;;;;;;5031903;28;20125;-80
2022/07/18 01:38:39;;;;;;;3.10;1.42;;;19.60;99.90;;;;;;5024962;28;20128;-78
2022/07/18 01:41:05;;;;;;;1.42;1.30;;;19.60;99.90;;;;;;5030920;28;20080;-79
2022/07/18 01:43:33;;;;;;;3.05;1.45;;;19.50;99.90;;;;;;5033300;28;20092;-79
2022/07/18 01:46:01;;;;;;;3.38;1.50;;;19.40;99.90;;;;;;5029313;28;20081;-76
2022/07/18 01:48:28;;;;;;;2.80;1.70;;;19.40;99.90;;;;;;5032523;28;20046;-76
2022/07/18 01:50:54;;;;;;;3.67;1.55;;;19.40;99.90;;;;;;5034099;28;20080;-79
2022/07/18 01:53:21;;;;;;;2.70;1.30;;;19.40;99.90;;;;;;5032465;28;20117;-79
2022/07/18 01:55:48;;;;;;;3.30;1.73;;;19.30;99.90;;;;;;5029809;28;20504;-78
2022/07/18 01:58:15;;;;;;;2.25;1.50;;;19.30;99.90;;;;;;5027786;28;20049;-79
2022/07/18 02:00:41;;;;;;;2.03;1.30;;;19.30;99.90;;;;;;5032510;28;20520;-79
2022/07/18 02:03:08;;;;;;;1.85;1.45;;;19.20;99.90;;;;;;5027444;28;20133;-77
2022/07/18 02:05:35;;;;;;;2.03;1.35;;;19.20;99.90;;;;;;5030172;28;20103;-79
2022/07/18 02:08:02;;;;;;;1.33;1.20;;;19.20;99.90;;;;;;5031137;28;20073;-79
2022/07/18 02:10:29;;;;;;;4.82;1.50;;;19.20;99.90;;;;;;5035080;28;20480;-78
2022/07/18 02:12:55;;;;;;;1.58;1.30;;;19.10;99.90;;;;;;5033578;28;20041;-79
2022/07/18 02:15:23;;;;;;;1.90;1.60;;;19.10;99.90;;;;;;5028952;28;20114;-79
2022/07/18 02:17:50;;;;;;;2.50;1.65;;;19.20;99.90;;;;;;5030452;28;20092;-78
2022/07/18 02:20:17;;;;;;;1.80;1.40;;;19.20;99.90;;;;;;5029683;28;20049;-77
2022/07/18 02:22:44;;;;;;;2.63;1.65;;;19.10;99.90;;;;;;5030681;28;20068;-79
2022/07/18 02:25:11;;;;;;;2.42;1.50;;;19.00;99.90;;;;;;5031639;28;20084;-79
2022/07/18 02:27:37;;;;;;;2.88;1.83;;;18.90;99.90;;;;;;5033028;28;20045;-78
2022/07/18 02:30:07;;;;;;;3.78;1.40;;;19.00;99.90;;;;;;5029110;28;20470;-79
2022/07/18 02:32:36;;;;;;;10.73;1.93;;;19.00;99.90;;;;;;5032773;28;20050;-78
2022/07/18 02:35:06;;;;;;;1.90;1.48;;;19.00;99.90;;;;;;5031838;28;20364;-79
2022/07/18 02:37:34;;;;;;;3.22;1.70;;;19.00;99.90;;;;;;5028126;28;20050;-81
2022/07/18 02:40:00;;;;;;;4.07;1.85;;;19.00;99.90;;;;;;5027339;28;20141;-79
2022/07/18 02:42:27;;;;;;;2.40;1.70;;;19.00;99.90;;;;;;5031078;28;20136;-78
2022/07/18 02:44:54;;;;;;;3.28;1.73;;;18.90;99.90;;;;;;5024049;28;20057;-79
2022/07/18 02:47:21;;;;;;;2.97;1.75;;;18.90;99.90;;;;;;5029545;28;20053;-78
2022/07/18 02:49:47;;;;;;;3.63;1.63;;;18.90;99.90;;;;;;5027797;28;20069;-79
2022/07/18 02:52:14;;;;;;;2.35;1.30;;;18.90;99.90;;;;;;5034200;28;20072;-79
2022/07/18 02:54:41;;;;;;;1.60;1.40;;;18.90;99.90;;;;;;5030973;28;20053;-78
2022/07/18 02:57:08;;;;;;;2.03;1.33;;;18.80;99.90;;;;;;5022937;28;20096;-76
2022/07/18 02:59:35;;;;;;;2.42;1.55;;;18.80;99.90;;;;;;5028416;28;20085;-79
2022/07/18 03:02:03;;;;;;;2.67;1.88;;;18.80;99.90;;;;;;5029171;28;20068;-77
2022/07/18 03:04:29;;;;;;;2.08;1.70;;;18.60;99.90;;;;;;5030758;28;20392;-79
2022/07/18 03:06:56;;;;;;;2.58;1.50;;;18.50;99.90;;;;;;5027090;28;20077;-76
2022/07/18 03:09:26;;;;;;;2.58;1.45;;;18.50;99.90;;;;;;5026008;28;20069;-81
2022/07/18 03:11:56;;;;;;;3.58;1.70;;;18.50;99.90;;;;;;5028928;28;20099;-78
2022/07/18 03:14:24;;;;;;;3.03;1.80;;;18.50;99.90;;;;;;5026109;28;20073;-79
2022/07/18 03:16:51;;;;;;;1.92;1.60;;;18.50;99.90;;;;;;5029529;28;20132;-78
2022/07/18 03:19:17;;;;;;;1.67;1.55;;;18.40;99.90;;;;;;5026089;28;20050;-79
2022/07/18 03:21:45;;;;;;;1.80;1.60;;;18.40;99.90;;;;;;5029324;28;20056;-79
2022/07/18 03:24:13;;;;;;;3.33;1.90;;;18.40;99.90;;;;;;5028129;28;20050;-79
2022/07/18 03:26:42;;;;;;;4.18;1.92;;;18.40;99.90;;;;;;5028297;28;20137;-78
2022/07/18 03:29:10;;;;;;;3.03;1.73;;;18.40;99.90;;;;;;5029454;28;20046;-79
2022/07/18 03:31:37;;;;;;;3.08;1.83;;;18.40;99.90;;;;;;5034623;28;20089;-79
2022/07/18 03:34:04;;;;;;;4.03;1.92;;;18.40;99.90;;;;;;5030035;28;20073;-77
2022/07/18 03:36:30;;;;;;;2.53;2.00;;;18.30;99.90;;;;;;5023173;28;20056;-79
2022/07/18 03:38:58;;;;;;;3.60;2.00;;;18.30;99.90;;;;;;5023706;28;20060;-78
2022/07/18 03:41:24;;;;;;;2.65;1.48;;;18.20;99.90;;;;;;5030191;28;20102;-78
2022/07/18 03:43:51;;;;;;;2.47;2.10;;;18.20;99.90;;;;;;5030503;28;20099;-77
2022/07/18 03:46:18;;;;;;;7.80;2.00;;;18.20;99.90;;;;;;5029538;28;20073;-79
2022/07/18 03:48:45;;;;;;;3.50;1.88;;;18.20;99.90;;;;;;5027794;28;20052;-79
2022/07/18 03:51:12;;;;;;;3.88;1.88;;;18.20;99.90;;;;;;5029082;28;20049;-78
2022/07/18 03:53:39;;;;;;;3.85;2.20;;;18.20;99.90;;;;;;5024107;28;20113;-77
2022/07/18 03:56:06;;;;;;;3.97;1.80;;;18.10;99.90;;;;;;5029014;28;20049;-79
2022/07/18 03:58:33;;;;;;;4.53;2.30;;;18.20;99.90;;;;;;5027282;28;20487;-78
2022/07/18 04:00:59;;;;;;;2.38;1.67;;;18.20;99.90;;;;;;5018199;28;20080;-80
2022/07/18 04:03:26;;;;;;;2.72;1.90;;;18.20;99.90;;;;;;5018531;28;20141;-80
2022/07/18 04:05:53;;;;;;;4.00;1.90;;;18.30;99.90;;;;;;5020134;28;20046;-78
2022/07/18 04:08:20;;;;;;;2.85;1.92;;;18.30;99.90;;;;;;5026839;28;20046;-77
2022/07/18 04:10:47;;;;;;;2.42;2.20;;;18.40;99.90;;;;;;5037313;28;20049;-82
2022/07/18 04:13:13;;;;;;;3.60;1.77;;;18.40;99.90;;;;;;5026503;28;20089;-79
2022/07/18 04:15:40;;;;;;;6.00;2.10;;;18.50;99.90;;;;;;5018830;28;20061;-79
2022/07/18 04:18:08;;;;;;;5.05;1.75;;;18.60;99.90;;;;;;5019284;28;20137;-79
2022/07/18 04:20:36;;;;;;;7.22;2.17;;;18.60;99.90;;;;;;5018715;28;20081;-80
2022/07/18 04:23:05;;;;;;;6.18;2.42;;;18.60;99.90;;;;;;5022364;28;20053;-80
2022/07/18 04:25:38;;;;;;;2.28;1.98;;;18.70;99.90;;;;;;5027475;28;20073;-77
2022/07/18 04:28:06;;;;;;;4.47;2.03;;;18.70;99.90;;;;;;5026455;28;20073;-80
2022/07/18 04:30:34;;;;;;;4.55;2.08;;;18.70;99.90;;;;;;5026941;28;20054;-79
2022/07/18 04:33:03;;;;;;;5.90;2.15;;;18.70;99.90;;;;;;5028955;28;20049;-79
2022/07/18 04:35:31;;;;;;;3.57;2.27;;;18.70;99.90;;;;;;5025962;28;20084;-78
2022/07/18 04:37:58;;;;;;;4.70;2.47;;;18.60;99.90;;;;;;5035084;28;20414;-79
2022/07/18 04:40:25;;;;;;;4.93;2.13;;;18.60;99.90;;;;;;5026865;28;20088;-78
2022/07/18 04:42:51;;;;;;;2.45;1.90;;;18.60;99.90;;;;;;5030306;28;20084;-77
2022/07/18 04:45:21;;;;;;;5.05;2.30;;;18.70;99.90;;;;;;5030833;28;20084;-79
2022/07/18 04:47:49;;;;;;;4.38;2.00;;;18.70;99.90;;;;;;5039031;28;20053;-79
2022/07/18 04:50:17;;;;;;;8.10;2.05;;;18.70;99.90;;;;;;5033720;28;20061;-79
2022/07/18 04:52:45;;;;;;;4.57;1.85;;;18.70;99.90;;;;;;5037428;28;20077;-78
2022/07/18 04:55:13;;;;;;;4.85;1.80;;;18.80;99.90;;;;;;5031213;28;20120;-79
2022/07/18 04:57:40;;;;;;;4.07;1.83;;;18.90;99.90;;;;;;5031081;28;20046;-77
2022/07/18 05:00:13;;;;;;;4.18;1.98;;;19.00;99.90;;;;;;5023198;28;20081;-78
2022/07/18 05:02:41;;;;;;;3.50;2.03;;;19.10;99.90;;;;;;5030358;28;20114;-78
2022/07/18 05:05:10;;;;;;;5.97;2.17;;;19.20;99.90;;;;;;5037278;28;20077;-78
2022/07/18 05:07:39;;;;;;;4.38;2.40;;;19.20;99.90;;;;;;5033226;28;20045;-76
2022/07/18 05:10:07;;;;;;;4.72;1.90;;;19.40;99.90;;;;;;5037446;28;20053;-79
2022/07/18 05:12:39;;;;;;;4.68;2.90;;;19.50;99.90;;;;;;5031832;28;20092;-78
2022/07/18 05:15:07;;;;;;;3.65;2.50;;;19.60;99.90;;;;;;5032295;28;20050;-81
2022/07/18 05:17:34;;;;;;;3.72;2.15;;;19.70;99.90;;;;;;5030266;28;20088;-79
2022/07/18 05:20:03;;;;;;;6.53;2.17;;;19.80;99.90;;;;;;5032853;28;20137;-78
2022/07/18 05:22:31;;;;;;;5.65;2.35;;;19.90;99.90;;;;;;5026266;28;20460;-81
2022/07/18 05:24:58;;;;;;;3.15;1.55;;;20.00;99.90;;;;;;5027786;28;20046;-80
2022/07/18 05:27:25;;;;;;;2.50;1.60;;;20.00;99.90;;;;;;5032052;28;20129;-80
2022/07/18 05:29:51;;;;;;;4.50;1.90;;;20.10;99.90;;;;;;5030477;28;20084;-79
2022/07/18 05:32:18;;;;;;;5.72;1.90;;;20.10;99.90;;;;;;5028373;28;20081;-77
2022/07/18 05:34:46;;;;;;;6.30;1.90;;;20.20;99.90;;;;;;5035485;28;20052;-78
2022/07/18 05:37:13;;;;;;;5.60;1.98;;;20.30;99.90;;;;;;5034400;28;20084;-78
2022/07/18 05:39:40;;;;;;;4.03;2.05;;;20.40;99.90;;;;;;5030774;28;20054;-78
2022/07/18 05:42:06;;;;;;;3.95;2.00;;;20.50;99.90;;;;;;5033466;28;20045;-77
2022/07/18 05:44:33;;;;;;;12.90;3.00;;;20.50;99.90;;;;;;5032502;28;20045;-77
2022/07/18 05:47:00;;;;;;;6.25;2.05;;;20.60;99.90;;;;;;5037147;28;20046;-79
2022/07/18 05:49:27;;;;;;;4.97;1.90;;;20.60;99.90;;;;;;5033806;28;20049;-79
2022/07/18 05:51:54;;;;;;;6.47;1.88;;;20.60;99.90;;;;;;5030463;28;20054;-80
2022/07/18 05:54:20;;;;;;;8.18;1.83;;;20.70;99.90;;;;;;5031734;28;20083;-79
2022/07/18 05:56:49;;;;;;;4.45;1.88;;;20.70;99.90;;;;;;5032758;28;20058;-77
2022/07/18 05:59:17;;;;;;;5.63;1.60;;;20.70;99.90;;;;;;5036462;28;20053;-79
2022/07/18 06:01:44;;;;;;;8.05;1.95;;;20.80;99.90;;;;;;5021878;28;20053;-79
2022/07/18 06:04:11;;;;;;;5.88;2.65;;;20.80;99.90;;;;;;5031801;28;20073;-80
2022/07/18 06:06:38;;;;;;;5.63;2.38;;;20.80;99.90;;;;;;5022626;28;20054;-80
2022/07/18 06:09:05;;;;;;;11.80;2.63;;;20.80;99.90;;;;;;5025327;28;20042;-80
2022/07/18 06:11:32;;;;;;;4.38;1.85;;;20.90;99.90;;;;;;5039714;28;20053;-78
2022/07/18 06:14:02;;;;;;;5.25;2.40;;;20.90;99.90;;;;;;5049547;28;20073;-79
2022/07/18 06:16:29;;;;;;;2.67;1.50;;;20.90;99.90;;;;;;5044615;28;20052;-79
2022/07/18 06:18:57;;;;;;;4.88;1.48;;;20.90;99.90;;;;;;5043970;28;20025;-80
2022/07/18 06:21:23;;;;;;;2.10;1.40;;;20.90;99.90;;;;;;5042256;28;20057;-80
2022/07/18 06:23:50;;;;;;;4.03;1.85;;;21.00;99.90;;;;;;5041543;28;20050;-79
2022/07/18 06:26:17;;;;;;;3.55;1.73;;;21.00;99.90;;;;;;5043570;28;20359;-79
2022/07/18 06:28:44;;;;;;;2.28;1.80;;;21.00;99.90;;;;;;5045300;28;20053;-79
2022/07/18 06:31:16;;;;;;;3.45;1.70;;;21.00;99.90;;;;;;5044741;28;20053;-80
2022/07/18 06:33:43;;;;;;;3.08;1.95;;;21.10;99.90;;;;;;5032482;28;20045;-79
2022/07/18 06:36:13;;;;;;;3.60;1.60;;;21.10;99.90;;;;;;5028765;28;20077;-80
2022/07/18 06:38:40;;;;;;;4.13;1.58;;;21.10;99.90;;;;;;5033248;28;20073;-80
2022/07/18 06:41:08;;;;;;;4.05;1.77;;;21.10;99.90;;;;;;5031018;28;20068;-80
2022/07/18 06:43:37;;;;;;;4.43;1.83;;;21.20;99.90;;;;;;5036834;28;20042;-79
2022/07/18 06:46:04;;;;;;;3.45;2.08;;;21.30;99.90;;;;;;5034082;28;20050;-80
2022/07/18 06:48:33;;;;;;;2.92;1.50;;;21.30;99.90;;;;;;5033884;28;20053;-79
2022/07/18 06:51:01;;;;;;;4.00;2.15;;;21.30;99.90;;;;;;5032644;28;20046;-80
2022/07/18 06:53:28;;;;;;;3.08;2.20;;;21.30;99.90;;;;;;5034196;28;20049;-80
2022/07/18 06:55:56;;;;;;;4.47;1.90;;;21.40;99.90;;;;;;5034316;28;20050;-80
2022/07/18 06:58:23;;;;;;;4.00;2.42;;;21.40;99.90;;;;;;5031024;28;20054;-79
2022/07/18 07:00:50;;;;;;;9.75;2.08;;;21.50;99.90;;;;;;5034019;28;20057;-80
2022/07/18 07:03:17;;;;;;;4.28;1.70;;;21.50;99.90;;;;;;5029371;28;20050;-80
2022/07/18 07:05:44;;;;;;;3.05;1.85;;;21.50;99.90;;;;;;5035773;28;20425;-80
2022/07/18 07:08:12;;;;;;;5.80;2.50;;;21.60;99.90;;;;;;5037933;28;20041;-80
2022/07/18 07:10:40;;;;;;;4.85;1.90;;;21.60;99.90;;;;;;5033132;28;20502;-78
2022/07/18 07:13:07;;;;;;;10.00;1.80;;;21.60;99.90;;;;;;5034946;28;20053;-80
2022/07/18 07:15:33;;;;;;;4.32;1.70;;;21.70;99.90;;;;;;5040940;28;20120;-82
2022/07/18 07:18:00;;;;;;;3.50;2.00;;;21.70;99.90;;;;;;5041242;28;20069;-81
2022/07/18 07:20:27;;;;;;;6.47;1.85;;;21.70;99.90;;;;;;5028414;28;20085;-79
2022/07/18 07:22:56;;;;;;;3.90;2.00;;;21.80;99.90;;;;;;5027389;28;20045;-79
2022/07/18 07:25:25;;;;;;;3.65;1.75;;;21.90;99.90;;;;;;5023111;28;20078;-79
2022/07/18 07:27:53;;;;;;;4.80;1.92;;;21.90;99.90;;;;;;5022166;28;20582;-77
2022/07/18 07:30:21;;;;;;;2.30;1.73;;;21.90;99.90;;;;;;5033054;28;20046;-78
2022/07/18 07:32:48;;;;;;;3.00;2.15;;;22.00;99.90;;;;;;5029271;28;20061;-79
2022/07/18 07:35:16;;;;;;;4.35;1.90;;;22.10;99.90;;;;;;5025160;28;20566;-78
2022/07/18 07:37:57;;;;;;;4.93;2.30;;;22.10;99.90;;;;;;5025462;28;20248;-80
2022/07/18 07:40:24;;;;;;;;;;;22.10;99.90;;;;;;5025702;28;20073;-78
2022/07/18 07:42:52;;;;;;;4.32;1.92;;;22.20;99.90;;;;;;5024659;28;19973;-79
2022/07/18 07:45:19;;;;;;;4.75;1.70;;;22.20;99.90;;;;;;5027080;28;20045;-79
2022/07/18 07:47:46;;;;;;;7.15;2.10;;;22.30;99.90;;;;;;5026655;28;20046;-79
2022/07/18 07:50:13;;;;;;;5.93;1.85;;;22.30;99.90;;;;;;5025310;28;20077;-79
2022/07/18 07:52:39;;;;;;;5.50;1.33;;;22.40;99.90;;;;;;5031784;28;20052;-79
2022/07/18 07:55:07;;;;;;;4.10;1.80;;;22.40;99.90;;;;;;5031155;28;20076;-79
2022/07/18 07:57:35;;;;;;;5.85;1.95;;;22.40;99.90;;;;;;5031669;28;20050;-79
2022/07/18 08:00:08;;;;;;;3.65;1.98;;;22.50;99.90;;;;;;5034614;28;20053;-79
2022/07/18 08:02:35;;;;;;;4.85;1.90;;;22.50;99.90;;;;;;5032412;28;20049;-79
2022/07/18 08:05:03;;;;;;;2.90;1.67;;;22.60;99.90;;;;;;5036110;28;20045;-79
2022/07/18 08:07:30;;;;;;;5.55;1.90;;;22.60;99.90;;;;;;5033575;28;20046;-79
2022/07/18 08:09:56;;;;;;;5.80;1.73;;;22.80;99.90;;;;;;5030215;28;20073;-78
2022/07/18 08:12:23;;;;;;;9.30;2.17;;;22.90;99.90;;;;;;5034592;28;20069;-79
2022/07/18 08:14:51;;;;;;;6.75;2.22;;;22.90;99.90;;;;;;5030602;28;20060;-80
2022/07/18 08:17:18;;;;;;;5.20;1.95;;;23.00;99.90;;;;;;5029144;28;20495;-78
2022/07/18 08:19:45;;;;;;;8.20;1.90;;;23.00;99.90;;;;;;5036223;28;20050;-79
2022/07/18 08:22:12;;;;;;;5.63;1.90;;;23.10;99.90;;;;;;5042467;28;20144;-79
2022/07/18 08:24:38;;;;;;;6.45;1.92;;;23.10;99.90;;;;;;5036023;28;20500;-79
2022/07/18 08:27:06;;;;;;;11.32;1.80;;;23.10;99.90;;;;;;5027544;28;20037;-79
2022/07/18 08:29:33;;;;;;;6.07;2.15;;;23.10;99.90;;;;;;5020558;28;20050;-77
2022/07/18 08:32:19;;;;;;;5.57;1.85;;;23.20;99.90;;;;;;5024771;28;20050;-77
2022/07/18 08:34:46;;;;;;;9.52;1.95;;;23.20;99.90;;;;;;5019949;28;20054;-79
2022/07/18 08:37:13;;;;;;;6.40;1.85;;;23.30;99.90;;;;;;5037531;28;20096;-79
2022/07/18 08:39:40;;;;;;;6.07;1.80;;;23.30;99.90;;;;;;5035720;28;20154;-79
2022/07/18 08:42:08;;;;;;;3.22;1.70;;;23.40;99.90;;;;;;5036610;28;20057;-78
2022/07/18 08:44:37;;;;;;;6.18;1.65;;;23.40;99.90;;;;;;5030896;28;20722;-78
2022/07/18 08:47:06;;;;;;;6.00;2.40;;;23.50;99.90;;;;;;5027005;28;20051;-79
2022/07/18 08:49:34;;;;;;;9.13;1.77;;;23.50;99.90;;;;;;5029696;28;20092;-77
2022/07/18 08:52:02;;;;;;;4.22;1.90;;;23.60;99.90;;;;;;5023886;28;20050;-77
2022/07/18 08:54:29;;;;;;;8.18;1.70;;;23.70;99.90;;;;;;5023487;28;20085;-78
2022/07/18 08:56:56;;;;;;;10.57;2.20;;;23.70;99.90;;;;;;5022985;28;20137;-77
2022/07/18 08:59:23;;;;;;;5.97;1.70;;;23.80;99.90;;;;;;5025073;28;20073;-77
2022/07/18 09:01:49;;;;;;;9.13;2.00;;;23.80;99.90;;;;;;5023816;28;20121;-79
2022/07/18 09:04:35;;;;;;;4.72;1.83;;;23.90;99.90;;;;;;5023854;28;20045;-77
2022/07/18 09:07:07;;;;;;;4.60;1.67;;;23.90;99.90;;;;;;5024263;28;20049;-79
2022/07/18 09:09:35;;;;;;;6.25;2.42;;;24.00;99.90;;;;;;5026184;28;20080;-78
2022/07/18 09:12:08;;;;;;;7.03;2.03;;;24.10;99.90;;;;;;5022411;28;20090;-77
2022/07/18 09:14:38;;;;;;;10.25;2.78;;;24.10;99.90;;;;;;5024588;28;20084;-77
2022/07/18 09:17:06;;;;;;;5.00;2.10;;;24.20;99.90;;;;;;5024784;28;20091;-78
2022/07/18 09:19:33;;;;;;;8.00;2.15;;;24.20;99.90;;;;;;5022198;28;20064;-77
2022/07/18 09:22:17;;;;;;;5.72;2.58;;;24.30;99.90;;;;;;5014290;28;20045;-78
2022/07/18 09:24:52;;;;;;;4.10;1.77;;;24.30;99.90;;;;;;5024667;28;20069;-76
2022/07/18 09:27:37;;;;;;;7.93;1.75;;;24.30;99.90;;;;;;5028268;28;20100;-78
2022/07/18 09:30:16;;;;;;;6.22;2.10;;;24.40;99.90;;;;;;5025665;28;20057;-77
2022/07/18 09:32:51;;;;;;;5.33;1.93;;;24.40;99.90;;;;;;5022988;28;20401;-77
2022/07/18 09:35:20;;;;;;;5.93;1.90;;;24.60;99.90;;;;;;5020338;28;20077;-77
2022/07/18 09:38:03;;;;;;;4.30;1.88;;;24.70;99.90;;;;;;5024617;28;20136;-78
2022/07/18 09:40:51;;;;;;;4.95;1.63;;;24.80;99.90;;;;;;5026677;28;20081;-77
2022/07/18 09:43:21;;;;;;;3.53;1.50;;;24.90;99.90;;;;;;5021769;28;20049;-77
2022/07/18 09:45:53;;;;;;;2.58;1.55;;;25.10;99.90;;;;;;5028012;28;20049;-78
2022/07/18 09:48:25;;;;;;;3.42;1.52;;;25.10;99.90;;;;;;5024362;28;20104;-75
2022/07/18 09:51:01;;;;;;;4.43;1.95;;;25.30;99.90;;;;;;5021734;28;20112;-77
2022/07/18 09:53:32;;;;;;;4.50;1.42;;;25.40;99.90;;;;;;5023319;28;20057;-78
2022/07/18 09:56:02;;;;;;;3.63;1.83;;;25.40;99.90;;;;;;5024940;28;20049;-78
2022/07/18 09:58:31;;;;;;;4.10;1.52;;;25.40;99.90;;;;;;5024987;28;20081;-78
2022/07/18 10:01:00;;;;;;;4.25;1.75;;;25.40;99.90;;;;;;5023602;28;20089;-78
2022/07/18 10:03:28;;;;;;;4.15;1.80;;;25.50;99.90;;;;;;5028646;28;20538;-78
2022/07/18 10:05:58;;;;;;;6.32;1.80;;;25.50;99.90;;;;;;5027412;28;20046;-77
2022/07/18 10:08:27;;;;;;;6.28;2.03;;;25.50;99.90;;;;;;5023394;28;20470;-77
2022/07/18 10:10:55;;;;;;;7.57;2.10;;;25.50;99.90;;;;;;5029758;28;20080;-77
2022/07/18 10:13:23;;;;;;;7.35;1.92;;;25.50;99.90;;;;;;5024489;28;20156;-77
2022/07/18 10:15:51;;;;;;;4.65;1.90;;;25.50;99.90;;;;;;5027786;28;20493;-77
2022/07/18 10:18:23;;;;;;;3.40;1.90;;;25.60;99.90;;;;;;5024154;28;20128;-77
2022/07/18 10:21:05;;;;;;;5.45;2.25;;;25.70;99.90;;;;;;5028772;28;20547;-77
2022/07/18 10:23:39;;;;;;;5.22;1.90;;;25.90;99.90;;;;;;5028664;28;20069;-77
2022/07/18 10:26:19;;;;;;;4.35;1.58;;;26.00;99.90;;;;;;5023336;28;20530;-78
2022/07/18 10:28:55;;;;;;;3.65;1.63;;;26.00;99.90;;;;;;5026493;28;20073;-77
2022/07/18 10:31:30;;;;;;;5.03;1.92;;;26.20;99.90;;;;;;5029295;28;20502;-77
2022/07/18 10:34:15;;;;;;;7.75;1.90;;;26.10;99.90;;;;;;5027015;28;20132;-77
2022/07/18 10:36:51;;;;;;;4.78;2.00;;;26.20;99.90;;;;;;5024125;28;20372;-77
2022/07/18 10:39:25;;;;;;;3.88;1.67;;;26.20;99.90;;;;;;5021251;28;20096;-77
2022/07/18 10:41:52;;;;;;;5.35;1.70;;;26.30;99.90;;;;;;5030980;28;20049;-77
2022/07/18 10:44:29;;;;;;;4.47;1.88;;;26.30;99.90;;;;;;5024490;28;20041;-78
2022/07/18 10:47:24;;;;;;;3.47;1.60;;;26.40;99.90;;;;;;5029513;28;20465;-78
2022/07/18 10:49:52;;;;;;;4.82;1.80;;;26.40;99.90;;;;;;5026443;28;20049;-78
2022/07/18 10:52:24;;;;;;;9.38;1.85;;;26.40;99.90;;;;;;5026837;28;20052;-80
2022/07/18 10:55:06;;;;;;;5.28;1.90;;;26.50;99.90;;;;;;5026633;28;20046;-77
2022/07/18 10:57:34;;;;;;;2.13;1.60;;;26.60;99.90;;;;;;5024574;28;20137;-76
2022/07/18 11:00:14;;;;;;;3.83;1.63;;;26.70;99.90;;;;;;5021148;28;20479;-76
2022/07/18 11:02:46;;;;;;;5.38;1.63;;;26.90;99.90;;;;;;5029714;28;20053;-77
2022/07/18 11:05:25;;;;;;;3.50;1.75;;;27.00;99.90;;;;;;5026268;28;20081;-77
2022/07/18 11:07:57;;;;;;;8.45;3.00;;;27.00;99.90;;;;;;5022712;28;20049;-78
2022/07/18 11:10:46;;;;;;;2.85;1.73;;;27.00;99.90;;;;;;5019728;28;20046;-77
2022/07/18 11:13:23;;;;;;;5.53;1.60;;;27.10;99.90;;;;;;5019802;28;20049;-77
2022/07/18 11:16:05;;;;;;;6.43;1.92;;;27.10;99.90;;;;;;5020780;28;20045;-77
2022/07/18 11:18:53;;;;;;;7.57;1.98;;;27.20;98.90;;;;;;5022754;28;20049;-77
2022/07/18 11:21:33;;;;;;;6.60;1.75;;;27.10;99.70;;;;;;5009852;28;20077;-78
2022/07/18 11:24:08;;;;;;;4.32;1.70;;;27.20;99.90;;;;;;5022598;28;20049;-78
2022/07/18 11:26:43;;;;;;;4.03;1.50;;;27.30;99.60;;;;;;5020115;28;20562;-78
2022/07/18 11:29:13;;;;;;;2.90;1.77;;;27.40;98.30;;;;;;5021207;28;20374;-78
2022/07/18 11:31:49;;;;;;;7.78;1.75;;;27.40;98.00;;;;;;5023810;28;20518;-78
2022/07/18 11:34:17;;;;;;;4.57;1.85;;;27.50;97.90;;;;;;5021521;28;20108;-78
2022/07/18 11:36:46;;;;;;;7.65;1.80;;;27.60;97.40;;;;;;5021075;28;20057;-77
2022/07/18 11:39:15;;;;;;;5.57;2.10;;;27.60;98.00;;;;;;5022467;28;20050;-75
2022/07/18 11:41:42;;;;;;;4.22;1.60;;;27.60;98.50;;;;;;5019320;28;20109;-76
2022/07/18 11:44:26;;;;;;;4.70;1.90;;;27.60;99.20;;;;;;5018339;28;20088;-78
2022/07/18 11:47:08;;;;;;;6.43;2.10;;;27.60;98.00;;;;;;5015780;28;20041;-76
2022/07/18 11:49:36;;;;;;;5.68;1.80;;;27.70;98.40;;;;;;5024088;28;20049;-78
2022/07/18 11:52:04;;;;;;;7.38;1.90;;;28.00;97.10;;;;;;5027514;28;20049;-78
2022/07/18 11:54:32;;;;;;;1.85;1.48;;;28.00;97.50;;;;;;5026362;28;20088;-79
2022/07/18 11:57:00;;;;;;;3.25;1.77;;;28.20;97.50;;;;;;5025431;28;20073;-77
2022/07/18 11:59:41;;;;;;;7.40;1.50;;;28.40;97.40;;;;;;5027018;28;20050;-78
2022/07/18 12:02:09;;;;;;;6.10;1.50;;;28.30;97.70;;;;;;5039770;28;20054;-78
2022/07/18 12:04:36;;;;;;;3.20;1.67;;;28.20;97.40;;;;;;5030814;28;20045;-78
2022/07/18 12:07:12;;;;;;;4.55;1.67;;;28.30;97.60;;;;;;5026715;28;20050;-78
2022/07/18 12:09:40;;;;;;;6.90;1.98;;;28.40;97.30;;;;;;5023153;28;20503;-78
2022/07/18 12:12:14;;;;;;;3.75;1.75;;;28.30;97.00;;;;;;5027371;28;20127;-77
2022/07/18 12:15:01;;;;;;;3.75;1.73;;;28.40;96.50;;;;;;5023983;28;20045;-77
2022/07/18 12:17:29;;;;;;;6.90;1.60;;;28.30;96.90;;;;;;5025867;28;20529;-76
2022/07/18 12:20:17;;;;;;;3.00;1.70;;;28.40;97.20;;;;;;5024472;28;20052;-78
2022/07/18 12:23:04;;;;;;;2.60;1.67;;;28.40;97.40;;;;;;5041302;28;20100;-77
2022/07/18 12:25:56;;;;;;;7.28;1.83;;;28.60;96.80;;;;;;5028663;28;21093;-78
2022/07/18 12:28:25;;;;;;;6.35;1.73;;;28.70;96.40;;;;;;5026060;28;20049;-78
2022/07/18 12:30:53;;;;;;;4.03;2.10;;;28.60;97.00;;;;;;5022947;28;20054;-76
2022/07/18 12:33:26;;;;;;;6.55;2.00;;;28.60;96.80;;;;;;5025448;28;20046;-78
2022/07/18 12:35:58;;;;;;;4.40;1.92;;;28.70;97.40;;;;;;5025379;28;20124;-78
2022/07/18 12:38:25;;;;;;;6.43;1.95;;;28.70;97.00;;;;;;5026645;28;20064;-78
2022/07/18 12:40:54;;;;;;;3.03;1.80;;;28.70;96.40;;;;;;5028549;28;20466;-77
2022/07/18 12:43:32;;;;;;;3.33;1.73;;;28.70;97.40;;;;;;5022611;28;20046;-78
2022/07/18 12:46:01;;;;;;;4.28;2.13;;;28.80;97.00;;;;;;5029183;28;20129;-78
2022/07/18 12:48:30;;;;;;;4.53;1.83;;;28.80;97.20;;;;;;5022202;28;20077;-78
2022/07/18 12:51:05;;;;;;;5.68;2.00;;;28.90;96.40;;;;;;5023443;28;20046;-78
2022/07/18 12:53:35;;;;;;;3.95;1.60;;;29.00;96.70;;;;;;5025911;28;20049;-78
2022/07/18 12:56:02;;;;;;;3.33;1.83;;;29.00;96.70;;;;;;5026948;28;20081;-77
2022/07/18 12:58:29;;;;;;;4.10;2.20;;;29.00;97.10;;;;;;5028401;28;20045;-76